sensor_id;sensor_type;location;lat;lon;timestamp;P1;durP1;ratioP1;P2;durP2;ratioP2
65174;SDS011;51761;42.126;24.752;2023-05-03T00:00:32;6.10;;;3.70;;
65174;SDS011;51761;42.126;24.752;2023-05-03T00:02:57;5.78;;;3.25;;
65174;SDS011;51761;42.126;24.752;2023-05-03T00:05:24;5.60;;;3.10;;
65174;SDS011;51761;42.126;24.752;2023-05-03T00:07:50;7.80;;;3.28;;
65174;SDS011;51761;42.126;24.752;2023-05-03T00:10:16;6.25;;;3.15;;
65174;SDS011;51761;42.126;24.752;2023-05-03T00:12:42;7.78;;;3.72;;
65174;SDS011;51761;42.126;24.752;2023-05-03T00:15:08;7.32;;;3.20;;
65174;SDS011;51761;42.126;24.752;2023-05-03T00:17:35;6.95;;;3.00;;
65174;SDS011;51761;42.126;24.752;2023-05-03T00:20:02;3.58;;;2.70;;
65174;SDS011;51761;42.126;24.752;2023-05-03T00:22:28;11.40;;;3.78;;
65174;SDS011;51761;42.126;24.752;2023-05-03T00:24:54;10.23;;;3.13;;
65174;SDS011;51761;42.126;24.752;2023-05-03T00:27:20;6.20;;;2.95;;
65174;SDS011;51761;42.126;24.752;2023-05-03T00:29:46;4.97;;;3.00;;
65174;SDS011;51761;42.126;24.752;2023-05-03T00:32:15;7.18;;;2.95;;
65174;SDS011;51761;42.126;24.752;2023-05-03T00:34:40;11.20;;;3.28;;
65174;SDS011;51761;42.126;24.752;2023-05-03T00:37:06;5.35;;;2.95;;
65174;SDS011;51761;42.126;24.752;2023-05-03T00:39:33;8.68;;;2.92;;
65174;SDS011;51761;42.126;24.752;2023-05-03T00:41:59;6.35;;;2.95;;
65174;SDS011;51761;42.126;24.752;2023-05-03T00:44:25;6.78;;;3.15;;
65174;SDS011;51761;42.126;24.752;2023-05-03T00:46:51;9.63;;;2.90;;
65174;SDS011;51761;42.126;24.752;2023-05-03T00:49:17;12.27;;;3.10;;
65174;SDS011;51761;42.126;24.752;2023-05-03T00:51:42;8.68;;;3.30;;
65174;SDS011;51761;42.126;24.752;2023-05-03T00:54:08;7.07;;;3.03;;
65174;SDS011;51761;42.126;24.752;2023-05-03T00:56:34;9.48;;;3.05;;
65174;SDS011;51761;42.126;24.752;2023-05-03T00:59:02;10.15;;;3.78;;
65174;SDS011;51761;42.126;24.752;2023-05-03T01:01:30;7.95;;;3.47;;
65174;SDS011;51761;42.126;24.752;2023-05-03T01:03:57;6.53;;;3.03;;
65174;SDS011;51761;42.126;24.752;2023-05-03T01:09:16;7.47;;;3.20;;
65174;SDS011;51761;42.126;24.752;2023-05-03T01:17:01;15.05;;;4.68;;
65174;SDS011;51761;42.126;24.752;2023-05-03T01:19:34;11.02;;;4.60;;
65174;SDS011;51761;42.126;24.752;2023-05-03T01:22:15;12.85;;;3.78;;
65174;SDS011;51761;42.126;24.752;2023-05-03T01:24:46;9.32;;;3.92;;
65174;SDS011;51761;42.126;24.752;2023-05-03T01:27:19;9.50;;;3.88;;
65174;SDS011;51761;42.126;24.752;2023-05-03T01:29:44;8.18;;;3.50;;
65174;SDS011;51761;42.126;24.752;2023-05-03T01:32:13;8.60;;;3.42;;
65174;SDS011;51761;42.126;24.752;2023-05-03T01:34:59;8.88;;;3.22;;
65174;SDS011;51761;42.126;24.752;2023-05-03T01:37:32;8.07;;;3.03;;
65174;SDS011;51761;42.126;24.752;2023-05-03T01:40:01;8.07;;;3.50;;
65174;SDS011;51761;42.126;24.752;2023-05-03T01:42:29;7.75;;;3.03;;
65174;SDS011;51761;42.126;24.752;2023-05-03T01:44:56;6.32;;;3.25;;
65174;SDS011;51761;42.126;24.752;2023-05-03T01:47:23;7.88;;;3.08;;
65174;SDS011;51761;42.126;24.752;2023-05-03T01:49:50;6.70;;;3.20;;
65174;SDS011;51761;42.126;24.752;2023-05-03T01:52:16;12.55;;;3.15;;
65174;SDS011;51761;42.126;24.752;2023-05-03T01:54:41;10.02;;;3.08;;
65174;SDS011;51761;42.126;24.752;2023-05-03T01:57:07;6.63;;;3.20;;
65174;SDS011;51761;42.126;24.752;2023-05-03T01:59:32;5.60;;;3.30;;
65174;SDS011;51761;42.126;24.752;2023-05-03T02:01:58;9.98;;;3.33;;
65174;SDS011;51761;42.126;24.752;2023-05-03T02:04:23;7.00;;;3.25;;
65174;SDS011;51761;42.126;24.752;2023-05-03T02:06:49;10.23;;;3.03;;
65174;SDS011;51761;42.126;24.752;2023-05-03T02:09:14;5.95;;;2.95;;
65174;SDS011;51761;42.126;24.752;2023-05-03T02:11:40;4.80;;;2.72;;
65174;SDS011;51761;42.126;24.752;2023-05-03T02:14:06;9.95;;;3.70;;
65174;SDS011;51761;42.126;24.752;2023-05-03T02:16:32;7.68;;;3.83;;
65174;SDS011;51761;42.126;24.752;2023-05-03T02:18:57;8.43;;;4.30;;
65174;SDS011;51761;42.126;24.752;2023-05-03T02:21:23;9.43;;;3.40;;
65174;SDS011;51761;42.126;24.752;2023-05-03T02:23:50;8.73;;;3.60;;
65174;SDS011;51761;42.126;24.752;2023-05-03T02:26:16;7.00;;;4.20;;
65174;SDS011;51761;42.126;24.752;2023-05-03T02:28:42;9.73;;;4.75;;
65174;SDS011;51761;42.126;24.752;2023-05-03T02:31:07;16.15;;;4.88;;
65174;SDS011;51761;42.126;24.752;2023-05-03T02:33:33;13.30;;;5.03;;
65174;SDS011;51761;42.126;24.752;2023-05-03T02:35:58;11.25;;;4.60;;
65174;SDS011;51761;42.126;24.752;2023-05-03T02:38:24;7.45;;;4.70;;
65174;SDS011;51761;42.126;24.752;2023-05-03T02:40:49;12.18;;;4.97;;
65174;SDS011;51761;42.126;24.752;2023-05-03T02:43:15;9.40;;;4.50;;
65174;SDS011;51761;42.126;24.752;2023-05-03T02:45:41;8.77;;;4.00;;
65174;SDS011;51761;42.126;24.752;2023-05-03T02:48:07;9.40;;;4.30;;
65174;SDS011;51761;42.126;24.752;2023-05-03T02:50:33;8.02;;;3.70;;
65174;SDS011;51761;42.126;24.752;2023-05-03T02:52:59;10.93;;;4.03;;
65174;SDS011;51761;42.126;24.752;2023-05-03T02:55:25;11.35;;;5.22;;
65174;SDS011;51761;42.126;24.752;2023-05-03T02:57:51;9.65;;;4.55;;
65174;SDS011;51761;42.126;24.752;2023-05-03T03:00:17;10.02;;;4.32;;
65174;SDS011;51761;42.126;24.752;2023-05-03T03:02:42;11.18;;;4.88;;
65174;SDS011;51761;42.126;24.752;2023-05-03T03:05:08;12.57;;;4.50;;
65174;SDS011;51761;42.126;24.752;2023-05-03T03:07:34;7.28;;;4.43;;
65174;SDS011;51761;42.126;24.752;2023-05-03T03:10:01;15.50;;;4.93;;
65174;SDS011;51761;42.126;24.752;2023-05-03T03:12:26;13.63;;;5.07;;
65174;SDS011;51761;42.126;24.752;2023-05-03T03:14:53;10.88;;;4.65;;
65174;SDS011;51761;42.126;24.752;2023-05-03T03:17:19;8.27;;;3.90;;
65174;SDS011;51761;42.126;24.752;2023-05-03T03:19:44;9.32;;;4.22;;
65174;SDS011;51761;42.126;24.752;2023-05-03T03:22:10;6.90;;;3.75;;
65174;SDS011;51761;42.126;24.752;2023-05-03T03:24:36;10.65;;;3.42;;
65174;SDS011;51761;42.126;24.752;2023-05-03T03:27:01;8.43;;;3.40;;
65174;SDS011;51761;42.126;24.752;2023-05-03T03:29:28;8.70;;;3.85;;
65174;SDS011;51761;42.126;24.752;2023-05-03T03:31:55;6.35;;;3.55;;
65174;SDS011;51761;42.126;24.752;2023-05-03T03:34:21;8.68;;;3.70;;
65174;SDS011;51761;42.126;24.752;2023-05-03T03:36:47;5.75;;;3.63;;
65174;SDS011;51761;42.126;24.752;2023-05-03T03:39:12;6.18;;;3.80;;
65174;SDS011;51761;42.126;24.752;2023-05-03T03:41:38;8.13;;;3.67;;
65174;SDS011;51761;42.126;24.752;2023-05-03T03:44:03;10.95;;;3.90;;
65174;SDS011;51761;42.126;24.752;2023-05-03T03:46:29;7.80;;;3.45;;
65174;SDS011;51761;42.126;24.752;2023-05-03T03:48:54;9.25;;;4.20;;
65174;SDS011;51761;42.126;24.752;2023-05-03T03:51:20;12.88;;;5.78;;
65174;SDS011;51761;42.126;24.752;2023-05-03T03:53:46;8.40;;;4.10;;
65174;SDS011;51761;42.126;24.752;2023-05-03T03:56:11;11.38;;;4.20;;
65174;SDS011;51761;42.126;24.752;2023-05-03T03:58:36;11.55;;;3.85;;
65174;SDS011;51761;42.126;24.752;2023-05-03T04:01:02;6.68;;;3.50;;
65174;SDS011;51761;42.126;24.752;2023-05-03T04:03:28;12.77;;;4.30;;
65174;SDS011;51761;42.126;24.752;2023-05-03T04:05:53;10.88;;;4.20;;
65174;SDS011;51761;42.126;24.752;2023-05-03T04:08:19;10.57;;;4.65;;
65174;SDS011;51761;42.126;24.752;2023-05-03T04:10:44;13.32;;;4.43;;
65174;SDS011;51761;42.126;24.752;2023-05-03T04:13:10;12.65;;;5.25;;
65174;SDS011;51761;42.126;24.752;2023-05-03T04:15:36;8.77;;;5.03;;
65174;SDS011;51761;42.126;24.752;2023-05-03T04:18:01;11.70;;;4.45;;
65174;SDS011;51761;42.126;24.752;2023-05-03T04:20:27;6.43;;;4.43;;
65174;SDS011;51761;42.126;24.752;2023-05-03T04:22:53;13.63;;;4.72;;
65174;SDS011;51761;42.126;24.752;2023-05-03T04:25:18;19.60;;;5.22;;
65174;SDS011;51761;42.126;24.752;2023-05-03T04:27:44;12.38;;;5.25;;
65174;SDS011;51761;42.126;24.752;2023-05-03T04:30:10;13.20;;;5.75;;
65174;SDS011;51761;42.126;24.752;2023-05-03T04:32:39;16.20;;;5.80;;
65174;SDS011;51761;42.126;24.752;2023-05-03T04:35:06;14.15;;;5.05;;
65174;SDS011;51761;42.126;24.752;2023-05-03T04:37:36;13.95;;;4.93;;
65174;SDS011;51761;42.126;24.752;2023-05-03T04:40:03;13.15;;;5.00;;
65174;SDS011;51761;42.126;24.752;2023-05-03T04:42:33;13.68;;;5.97;;
65174;SDS011;51761;42.126;24.752;2023-05-03T04:45:00;11.40;;;5.63;;
65174;SDS011;51761;42.126;24.752;2023-05-03T04:47:28;19.70;;;5.88;;
65174;SDS011;51761;42.126;24.752;2023-05-03T04:49:53;13.30;;;6.20;;
65174;SDS011;51761;42.126;24.752;2023-05-03T04:52:19;13.32;;;6.68;;
65174;SDS011;51761;42.126;24.752;2023-05-03T04:54:44;17.60;;;6.72;;
65174;SDS011;51761;42.126;24.752;2023-05-03T04:57:10;14.43;;;6.47;;
65174;SDS011;51761;42.126;24.752;2023-05-03T04:59:35;16.25;;;7.30;;
65174;SDS011;51761;42.126;24.752;2023-05-03T05:02:01;12.88;;;7.03;;
65174;SDS011;51761;42.126;24.752;2023-05-03T05:04:26;20.00;;;9.50;;
65174;SDS011;51761;42.126;24.752;2023-05-03T05:06:52;20.33;;;10.10;;
65174;SDS011;51761;42.126;24.752;2023-05-03T05:09:25;32.60;;;12.55;;
65174;SDS011;51761;42.126;24.752;2023-05-03T05:11:51;28.25;;;13.40;;
65174;SDS011;51761;42.126;24.752;2023-05-03T05:14:17;31.67;;;14.60;;
65174;SDS011;51761;42.126;24.752;2023-05-03T05:16:43;37.53;;;16.10;;
65174;SDS011;51761;42.126;24.752;2023-05-03T05:19:09;28.13;;;12.07;;
65174;SDS011;51761;42.126;24.752;2023-05-03T05:21:34;15.18;;;8.30;;
65174;SDS011;51761;42.126;24.752;2023-05-03T05:24:00;19.38;;;11.25;;
65174;SDS011;51761;42.126;24.752;2023-05-03T05:26:26;29.15;;;11.25;;
65174;SDS011;51761;42.126;24.752;2023-05-03T05:28:52;20.33;;;10.27;;
65174;SDS011;51761;42.126;24.752;2023-05-03T05:31:18;20.80;;;10.05;;
65174;SDS011;51761;42.126;24.752;2023-05-03T05:33:43;12.98;;;8.43;;
65174;SDS011;51761;42.126;24.752;2023-05-03T05:36:09;23.48;;;9.73;;
65174;SDS011;51761;42.126;24.752;2023-05-03T05:38:34;16.48;;;7.88;;
65174;SDS011;51761;42.126;24.752;2023-05-03T05:41:00;17.35;;;8.98;;
65174;SDS011;51761;42.126;24.752;2023-05-03T05:43:26;18.55;;;7.55;;
65174;SDS011;51761;42.126;24.752;2023-05-03T05:45:51;17.27;;;8.93;;
65174;SDS011;51761;42.126;24.752;2023-05-03T05:48:17;18.52;;;9.40;;
65174;SDS011;51761;42.126;24.752;2023-05-03T05:50:43;25.75;;;13.43;;
65174;SDS011;51761;42.126;24.752;2023-05-03T05:53:08;26.83;;;14.10;;
65174;SDS011;51761;42.126;24.752;2023-05-03T05:55:34;32.05;;;14.93;;
65174;SDS011;51761;42.126;24.752;2023-05-03T05:57:59;24.30;;;12.32;;
65174;SDS011;51761;42.126;24.752;2023-05-03T06:00:25;27.63;;;12.77;;
65174;SDS011;51761;42.126;24.752;2023-05-03T06:02:51;28.88;;;11.95;;
65174;SDS011;51761;42.126;24.752;2023-05-03T06:05:16;24.90;;;12.63;;
65174;SDS011;51761;42.126;24.752;2023-05-03T06:07:42;21.15;;;12.02;;
65174;SDS011;51761;42.126;24.752;2023-05-03T06:10:08;23.77;;;11.82;;
65174;SDS011;51761;42.126;24.752;2023-05-03T06:12:34;16.33;;;8.82;;
65174;SDS011;51761;42.126;24.752;2023-05-03T06:15:00;13.95;;;7.82;;
65174;SDS011;51761;42.126;24.752;2023-05-03T06:17:26;15.63;;;8.57;;
65174;SDS011;51761;42.126;24.752;2023-05-03T06:19:52;19.92;;;8.63;;
65174;SDS011;51761;42.126;24.752;2023-05-03T06:22:17;19.35;;;9.95;;
65174;SDS011;51761;42.126;24.752;2023-05-03T06:24:44;18.92;;;9.32;;
65174;SDS011;51761;42.126;24.752;2023-05-03T06:27:10;14.80;;;8.13;;
65174;SDS011;51761;42.126;24.752;2023-05-03T06:29:35;18.63;;;8.02;;
65174;SDS011;51761;42.126;24.752;2023-05-03T06:32:01;18.45;;;7.82;;
65174;SDS011;51761;42.126;24.752;2023-05-03T06:34:27;14.32;;;8.10;;
65174;SDS011;51761;42.126;24.752;2023-05-03T06:36:53;14.93;;;8.60;;
65174;SDS011;51761;42.126;24.752;2023-05-03T06:39:19;16.45;;;8.15;;
65174;SDS011;51761;42.126;24.752;2023-05-03T06:41:45;15.50;;;8.38;;
65174;SDS011;51761;42.126;24.752;2023-05-03T06:44:10;17.77;;;8.23;;
65174;SDS011;51761;42.126;24.752;2023-05-03T06:46:36;17.08;;;7.85;;
65174;SDS011;51761;42.126;24.752;2023-05-03T06:49:01;14.13;;;7.30;;
65174;SDS011;51761;42.126;24.752;2023-05-03T06:51:27;13.73;;;7.55;;
65174;SDS011;51761;42.126;24.752;2023-05-03T06:53:55;11.25;;;7.22;;
65174;SDS011;51761;42.126;24.752;2023-05-03T06:56:21;13.30;;;7.45;;
65174;SDS011;51761;42.126;24.752;2023-05-03T06:58:48;13.77;;;6.88;;
65174;SDS011;51761;42.126;24.752;2023-05-03T07:01:13;19.75;;;7.32;;
65174;SDS011;51761;42.126;24.752;2023-05-03T07:03:41;12.82;;;6.90;;
65174;SDS011;51761;42.126;24.752;2023-05-03T07:06:06;12.02;;;7.30;;
65174;SDS011;51761;42.126;24.752;2023-05-03T07:08:32;12.27;;;6.60;;
65174;SDS011;51761;42.126;24.752;2023-05-03T07:10:57;14.65;;;7.22;;
65174;SDS011;51761;42.126;24.752;2023-05-03T07:13:23;13.00;;;7.18;;
65174;SDS011;51761;42.126;24.752;2023-05-03T07:15:49;13.88;;;6.45;;
65174;SDS011;51761;42.126;24.752;2023-05-03T07:18:14;12.55;;;7.57;;
65174;SDS011;51761;42.126;24.752;2023-05-03T07:20:40;10.73;;;5.45;;
65174;SDS011;51761;42.126;24.752;2023-05-03T07:23:05;19.83;;;7.10;;
65174;SDS011;51761;42.126;24.752;2023-05-03T07:25:34;15.18;;;6.90;;
65174;SDS011;51761;42.126;24.752;2023-05-03T07:27:59;12.43;;;7.03;;
65174;SDS011;51761;42.126;24.752;2023-05-03T07:30:25;12.32;;;6.38;;
65174;SDS011;51761;42.126;24.752;2023-05-03T07:32:50;17.17;;;8.68;;
65174;SDS011;51761;42.126;24.752;2023-05-03T07:35:16;17.33;;;7.70;;
65174;SDS011;51761;42.126;24.752;2023-05-03T07:37:43;16.23;;;7.57;;
65174;SDS011;51761;42.126;24.752;2023-05-03T07:40:09;12.18;;;6.85;;
65174;SDS011;51761;42.126;24.752;2023-05-03T07:42:35;10.25;;;5.63;;
65174;SDS011;51761;42.126;24.752;2023-05-03T07:45:01;9.20;;;5.75;;
65174;SDS011;51761;42.126;24.752;2023-05-03T07:47:26;13.90;;;6.18;;
65174;SDS011;51761;42.126;24.752;2023-05-03T07:49:52;17.73;;;6.22;;
65174;SDS011;51761;42.126;24.752;2023-05-03T07:52:18;10.20;;;6.75;;
65174;SDS011;51761;42.126;24.752;2023-05-03T07:54:44;12.43;;;6.78;;
65174;SDS011;51761;42.126;24.752;2023-05-03T07:57:13;13.95;;;6.60;;
65174;SDS011;51761;42.126;24.752;2023-05-03T07:59:40;12.32;;;5.88;;
65174;SDS011;51761;42.126;24.752;2023-05-03T08:02:07;7.97;;;5.63;;
65174;SDS011;51761;42.126;24.752;2023-05-03T08:04:33;11.45;;;6.07;;
65174;SDS011;51761;42.126;24.752;2023-05-03T08:07:00;9.68;;;6.18;;
65174;SDS011;51761;42.126;24.752;2023-05-03T08:09:26;12.10;;;5.85;;
65174;SDS011;51761;42.126;24.752;2023-05-03T08:11:53;10.73;;;6.10;;
65174;SDS011;51761;42.126;24.752;2023-05-03T08:14:19;11.45;;;6.28;;
65174;SDS011;51761;42.126;24.752;2023-05-03T08:16:45;6.65;;;4.75;;
65174;SDS011;51761;42.126;24.752;2023-05-03T08:19:10;10.88;;;5.50;;
65174;SDS011;51761;42.126;24.752;2023-05-03T08:21:36;7.95;;;4.60;;
65174;SDS011;51761;42.126;24.752;2023-05-03T08:24:02;7.68;;;4.10;;
65174;SDS011;51761;42.126;24.752;2023-05-03T08:26:30;9.10;;;5.03;;
65174;SDS011;51761;42.126;24.752;2023-05-03T08:28:57;7.53;;;4.75;;
65174;SDS011;51761;42.126;24.752;2023-05-03T08:31:22;7.78;;;4.68;;
65174;SDS011;51761;42.126;24.752;2023-05-03T08:33:48;11.07;;;4.90;;
65174;SDS011;51761;42.126;24.752;2023-05-03T08:36:14;8.65;;;4.72;;
65174;SDS011;51761;42.126;24.752;2023-05-03T08:38:40;9.63;;;4.90;;
65174;SDS011;51761;42.126;24.752;2023-05-03T08:41:13;12.65;;;4.70;;
65174;SDS011;51761;42.126;24.752;2023-05-03T08:43:45;7.85;;;4.40;;
65174;SDS011;51761;42.126;24.752;2023-05-03T08:46:18;10.00;;;4.40;;
65174;SDS011;51761;42.126;24.752;2023-05-03T08:48:44;9.15;;;5.10;;
65174;SDS011;51761;42.126;24.752;2023-05-03T08:51:12;11.38;;;5.40;;
65174;SDS011;51761;42.126;24.752;2023-05-03T08:53:38;10.60;;;4.72;;
65174;SDS011;51761;42.126;24.752;2023-05-03T08:56:07;10.65;;;4.75;;
65174;SDS011;51761;42.126;24.752;2023-05-03T08:58:34;7.18;;;3.92;;
65174;SDS011;51761;42.126;24.752;2023-05-03T09:01:04;12.95;;;4.97;;
65174;SDS011;51761;42.126;24.752;2023-05-03T09:03:31;7.40;;;4.43;;
65174;SDS011;51761;42.126;24.752;2023-05-03T09:05:57;16.40;;;6.05;;
65174;SDS011;51761;42.126;24.752;2023-05-03T09:08:26;8.85;;;5.15;;
65174;SDS011;51761;42.126;24.752;2023-05-03T09:10:53;9.00;;;5.85;;
65174;SDS011;51761;42.126;24.752;2023-05-03T09:13:18;10.00;;;5.28;;
65174;SDS011;51761;42.126;24.752;2023-05-03T09:15:53;8.23;;;4.80;;
65174;SDS011;51761;42.126;24.752;2023-05-03T09:18:19;11.07;;;5.75;;
65174;SDS011;51761;42.126;24.752;2023-05-03T09:20:45;11.55;;;5.55;;
65174;SDS011;51761;42.126;24.752;2023-05-03T09:23:27;11.85;;;5.65;;
65174;SDS011;51761;42.126;24.752;2023-05-03T09:25:55;12.57;;;5.88;;
65174;SDS011;51761;42.126;24.752;2023-05-03T09:28:21;8.38;;;5.45;;
65174;SDS011;51761;42.126;24.752;2023-05-03T09:30:48;9.27;;;5.25;;
65174;SDS011;51761;42.126;24.752;2023-05-03T09:33:14;12.20;;;5.07;;
65174;SDS011;51761;42.126;24.752;2023-05-03T09:35:57;26.50;;;11.90;;
65174;SDS011;51761;42.126;24.752;2023-05-03T09:38:26;10.75;;;6.32;;
65174;SDS011;51761;42.126;24.752;2023-05-03T09:40:53;10.90;;;5.35;;
65174;SDS011;51761;42.126;24.752;2023-05-03T09:43:18;9.43;;;5.57;;
65174;SDS011;51761;42.126;24.752;2023-05-03T09:45:43;9.50;;;5.65;;
65174;SDS011;51761;42.126;24.752;2023-05-03T09:48:09;7.32;;;5.28;;
65174;SDS011;51761;42.126;24.752;2023-05-03T09:50:37;10.95;;;5.50;;
65174;SDS011;51761;42.126;24.752;2023-05-03T09:53:03;7.95;;;5.05;;
65174;SDS011;51761;42.126;24.752;2023-05-03T09:55:33;6.65;;;5.03;;
65174;SDS011;51761;42.126;24.752;2023-05-03T09:58:00;9.82;;;4.88;;
65174;SDS011;51761;42.126;24.752;2023-05-03T10:00:32;9.45;;;4.82;;
65174;SDS011;51761;42.126;24.752;2023-05-03T10:03:06;7.32;;;4.90;;
65174;SDS011;51761;42.126;24.752;2023-05-03T10:05:35;7.43;;;4.95;;
65174;SDS011;51761;42.126;24.752;2023-05-03T10:08:10;12.57;;;5.55;;
65174;SDS011;51761;42.126;24.752;2023-05-03T10:10:41;10.07;;;5.60;;
65174;SDS011;51761;42.126;24.752;2023-05-03T10:13:10;9.10;;;5.60;;
65174;SDS011;51761;42.126;24.752;2023-05-03T10:15:37;10.63;;;5.93;;
65174;SDS011;51761;42.126;24.752;2023-05-03T10:18:06;9.93;;;5.53;;
65174;SDS011;51761;42.126;24.752;2023-05-03T10:20:43;8.90;;;5.90;;
65174;SDS011;51761;42.126;24.752;2023-05-03T10:23:14;11.95;;;5.70;;
65174;SDS011;51761;42.126;24.752;2023-05-03T10:28:33;10.23;;;5.13;;
65174;SDS011;51761;42.126;24.752;2023-05-03T10:30:59;20.25;;;9.35;;
65174;SDS011;51761;42.126;24.752;2023-05-03T10:33:30;10.27;;;5.35;;
65174;SDS011;51761;42.126;24.752;2023-05-03T10:35:58;14.25;;;7.50;;
65174;SDS011;51761;42.126;24.752;2023-05-03T10:38:30;9.43;;;5.30;;
65174;SDS011;51761;42.126;24.752;2023-05-03T10:40:56;9.00;;;4.80;;
65174;SDS011;51761;42.126;24.752;2023-05-03T10:48:28;11.68;;;4.65;;
65174;SDS011;51761;42.126;24.752;2023-05-03T10:50:54;8.70;;;5.00;;
65174;SDS011;51761;42.126;24.752;2023-05-03T10:56:09;10.57;;;5.13;;
65174;SDS011;51761;42.126;24.752;2023-05-03T10:58:36;9.20;;;4.82;;
65174;SDS011;51761;42.126;24.752;2023-05-03T11:01:18;8.52;;;4.90;;
65174;SDS011;51761;42.126;24.752;2023-05-03T11:06:26;13.00;;;5.32;;
65174;SDS011;51761;42.126;24.752;2023-05-03T11:09:00;13.43;;;5.20;;
65174;SDS011;51761;42.126;24.752;2023-05-03T11:11:28;9.80;;;5.68;;
65174;SDS011;51761;42.126;24.752;2023-05-03T11:13:55;9.43;;;5.78;;
65174;SDS011;51761;42.126;24.752;2023-05-03T11:16:20;11.77;;;4.90;;
65174;SDS011;51761;42.126;24.752;2023-05-03T11:18:46;10.75;;;5.97;;
65174;SDS011;51761;42.126;24.752;2023-05-03T11:21:12;8.80;;;5.93;;
65174;SDS011;51761;42.126;24.752;2023-05-03T11:23:38;8.68;;;5.57;;
65174;SDS011;51761;42.126;24.752;2023-05-03T11:26:05;10.60;;;5.72;;
65174;SDS011;51761;42.126;24.752;2023-05-03T11:28:31;10.75;;;5.50;;
65174;SDS011;51761;42.126;24.752;2023-05-03T11:30:56;13.63;;;5.60;;
65174;SDS011;51761;42.126;24.752;2023-05-03T11:33:22;11.07;;;6.40;;
65174;SDS011;51761;42.126;24.752;2023-05-03T11:35:48;9.25;;;5.40;;
65174;SDS011;51761;42.126;24.752;2023-05-03T11:38:13;16.13;;;6.40;;
65174;SDS011;51761;42.126;24.752;2023-05-03T11:40:39;11.07;;;5.40;;
65174;SDS011;51761;42.126;24.752;2023-05-03T11:43:05;13.48;;;6.30;;
65174;SDS011;51761;42.126;24.752;2023-05-03T11:45:39;10.85;;;6.30;;
65174;SDS011;51761;42.126;24.752;2023-05-03T11:48:09;9.85;;;5.70;;
65174;SDS011;51761;42.126;24.752;2023-05-03T11:50:42;12.20;;;6.25;;
65174;SDS011;51761;42.126;24.752;2023-05-03T11:55:47;10.68;;;5.85;;
65174;SDS011;51761;42.126;24.752;2023-05-03T11:58:15;10.55;;;5.47;;
65174;SDS011;51761;42.126;24.752;2023-05-03T12:00:42;12.70;;;5.80;;
65174;SDS011;51761;42.126;24.752;2023-05-03T12:03:14;10.75;;;5.50;;
65174;SDS011;51761;42.126;24.752;2023-05-03T12:05:41;14.98;;;5.75;;
65174;SDS011;51761;42.126;24.752;2023-05-03T12:08:08;13.77;;;6.00;;
65174;SDS011;51761;42.126;24.752;2023-05-03T12:10:35;11.00;;;6.68;;
65174;SDS011;51761;42.126;24.752;2023-05-03T12:13:01;17.20;;;7.00;;
65174;SDS011;51761;42.126;24.752;2023-05-03T12:15:31;10.35;;;6.78;;
65174;SDS011;51761;42.126;24.752;2023-05-03T12:17:58;11.27;;;6.03;;
65174;SDS011;51761;42.126;24.752;2023-05-03T12:20:27;11.40;;;6.18;;
65174;SDS011;51761;42.126;24.752;2023-05-03T12:22:58;11.07;;;5.32;;
65174;SDS011;51761;42.126;24.752;2023-05-03T12:25:26;10.18;;;5.43;;
65174;SDS011;51761;42.126;24.752;2023-05-03T12:27:53;12.65;;;5.78;;
65174;SDS011;51761;42.126;24.752;2023-05-03T12:30:20;10.90;;;6.32;;
65174;SDS011;51761;42.126;24.752;2023-05-03T12:32:46;17.10;;;8.73;;
65174;SDS011;51761;42.126;24.752;2023-05-03T12:35:11;12.73;;;7.97;;
65174;SDS011;51761;42.126;24.752;2023-05-03T12:37:37;9.43;;;7.65;;
65174;SDS011;51761;42.126;24.752;2023-05-03T12:40:03;16.98;;;8.10;;
65174;SDS011;51761;42.126;24.752;2023-05-03T12:42:29;14.80;;;8.18;;
65174;SDS011;51761;42.126;24.752;2023-05-03T12:44:55;10.57;;;6.10;;
65174;SDS011;51761;42.126;24.752;2023-05-03T12:47:21;11.23;;;6.32;;
65174;SDS011;51761;42.126;24.752;2023-05-03T12:49:47;12.85;;;7.05;;
65174;SDS011;51761;42.126;24.752;2023-05-03T12:52:12;12.23;;;6.25;;
65174;SDS011;51761;42.126;24.752;2023-05-03T12:54:38;12.52;;;5.95;;
65174;SDS011;51761;42.126;24.752;2023-05-03T12:57:03;12.82;;;6.68;;
65174;SDS011;51761;42.126;24.752;2023-05-03T12:59:30;8.13;;;6.25;;
65174;SDS011;51761;42.126;24.752;2023-05-03T13:01:56;12.23;;;6.22;;
65174;SDS011;51761;42.126;24.752;2023-05-03T13:04:21;12.73;;;6.25;;
65174;SDS011;51761;42.126;24.752;2023-05-03T13:06:47;11.30;;;6.15;;
65174;SDS011;51761;42.126;24.752;2023-05-03T13:09:14;15.70;;;6.80;;
65174;SDS011;51761;42.126;24.752;2023-05-03T13:11:43;12.65;;;6.75;;
65174;SDS011;51761;42.126;24.752;2023-05-03T13:14:10;16.73;;;6.03;;
65174;SDS011;51761;42.126;24.752;2023-05-03T13:16:40;9.65;;;6.00;;
65174;SDS011;51761;42.126;24.752;2023-05-03T13:19:08;11.07;;;6.15;;
65174;SDS011;51761;42.126;24.752;2023-05-03T13:21:34;12.88;;;5.93;;
65174;SDS011;51761;42.126;24.752;2023-05-03T13:23:59;11.65;;;6.40;;
65174;SDS011;51761;42.126;24.752;2023-05-03T13:26:25;14.60;;;6.20;;
65174;SDS011;51761;42.126;24.752;2023-05-03T13:28:50;13.35;;;7.40;;
65174;SDS011;51761;42.126;24.752;2023-05-03T13:31:15;9.15;;;4.90;;
65174;SDS011;51761;42.126;24.752;2023-05-03T13:33:41;11.80;;;5.40;;
65174;SDS011;51761;42.126;24.752;2023-05-03T13:36:07;10.63;;;5.03;;
65174;SDS011;51761;42.126;24.752;2023-05-03T13:38:33;6.72;;;4.47;;
65174;SDS011;51761;42.126;24.752;2023-05-03T13:40:59;8.90;;;4.13;;
65174;SDS011;51761;42.126;24.752;2023-05-03T13:43:25;11.48;;;4.70;;
65174;SDS011;51761;42.126;24.752;2023-05-03T13:45:50;8.93;;;4.50;;
65174;SDS011;51761;42.126;24.752;2023-05-03T13:48:17;8.48;;;3.80;;
65174;SDS011;51761;42.126;24.752;2023-05-03T13:50:43;5.25;;;4.07;;
65174;SDS011;51761;42.126;24.752;2023-05-03T13:53:08;9.15;;;4.28;;
65174;SDS011;51761;42.126;24.752;2023-05-03T13:55:34;7.22;;;4.80;;
65174;SDS011;51761;42.126;24.752;2023-05-03T13:57:59;9.13;;;4.93;;
65174;SDS011;51761;42.126;24.752;2023-05-03T14:00:25;14.05;;;4.72;;
65174;SDS011;51761;42.126;24.752;2023-05-03T14:02:50;9.75;;;4.53;;
65174;SDS011;51761;42.126;24.752;2023-05-03T14:05:16;8.57;;;5.28;;
65174;SDS011;51761;42.126;24.752;2023-05-03T14:07:43;10.88;;;4.88;;
65174;SDS011;51761;42.126;24.752;2023-05-03T14:10:09;12.48;;;5.32;;
65174;SDS011;51761;42.126;24.752;2023-05-03T14:12:35;9.73;;;5.80;;
65174;SDS011;51761;42.126;24.752;2023-05-03T14:15:02;13.38;;;5.88;;
65174;SDS011;51761;42.126;24.752;2023-05-03T14:17:28;12.13;;;5.63;;
65174;SDS011;51761;42.126;24.752;2023-05-03T14:19:54;9.27;;;5.10;;
65174;SDS011;51761;42.126;24.752;2023-05-03T14:22:20;10.30;;;5.00;;
65174;SDS011;51761;42.126;24.752;2023-05-03T14:24:45;16.95;;;5.38;;
65174;SDS011;51761;42.126;24.752;2023-05-03T14:27:11;8.20;;;4.97;;
65174;SDS011;51761;42.126;24.752;2023-05-03T14:29:38;7.28;;;4.70;;
65174;SDS011;51761;42.126;24.752;2023-05-03T14:32:03;15.68;;;5.25;;
65174;SDS011;51761;42.126;24.752;2023-05-03T14:34:29;7.80;;;4.88;;
65174;SDS011;51761;42.126;24.752;2023-05-03T14:36:55;10.65;;;4.40;;
65174;SDS011;51761;42.126;24.752;2023-05-03T14:39:21;8.80;;;4.20;;
65174;SDS011;51761;42.126;24.752;2023-05-03T14:41:46;7.78;;;4.72;;
65174;SDS011;51761;42.126;24.752;2023-05-03T14:44:14;9.77;;;6.00;;
65174;SDS011;51761;42.126;24.752;2023-05-03T14:46:39;7.00;;;4.45;;